METAR

TAF

 




Rio de Janeiro / Galeão - Antonio Carlos Jobim, RJ - SBGL


01 de Março de 2015 às 16:00 (UTC)


Tempo:

Céu parcialmente nublado

Temperatura:

28ºC

Umidade Relativa:

58%

Localização:
Ajuste do Altímetro:

1017 hPa

Visibilidade Horizontal Predominante:

> 10 Km

Direção e Velocidade do Vento:

130° 24,08 Km/h


Observação Meteorológica:

METAR SBGL 011600Z 13013KT 9999 SCT025 28/19 Q1017=